Terminal Aerodrome Forecast
Issued by NWS Austin/San Antonio, TX

Home | Current Version | Previous Version | Text Only | Print | Product List | Glossary On
Versions: 1 2 3 4 5 6 7 8 9 10 11 12 13
000
FTUS44 KEWX 231738
TAFAUS
TAF
KAUS 231738Z 2318/2424 16010KT P6SM FEW050 FEW250
     FM240900 19005KT P6SM SCT015 SCT250
      TEMPO 2410/2414 BKN015
     FM241400 18007KT P6SM FEW050 SCT250=

USA.gov is the U.S. government's official web portal to all federal, state and local government web resources and services.